createdAt,value
2022-09-04T00:02:19.397Z,12.30
2022-09-04T00:05:05.985Z,12.30
2022-09-04T00:07:47.952Z,12.30
2022-09-04T00:10:30.629Z,12.30
2022-09-04T00:13:05.894Z,12.30
2022-09-04T00:15:48.547Z,12.30
2022-09-04T00:18:44.367Z,12.30
2022-09-04T00:21:37.785Z,12.30
2022-09-04T00:24:10.706Z,12.40
2022-09-04T00:26:56.299Z,12.30
2022-09-04T00:29:54.806Z,12.30
2022-09-04T00:32:34.721Z,12.30
2022-09-04T00:35:31.791Z,12.30
2022-09-04T00:38:17.902Z,12.30
2022-09-04T00:40:57.040Z,12.30
2022-09-04T00:43:29.999Z,12.40
2022-09-04T00:46:22.094Z,12.40
2022-09-04T00:49:19.470Z,12.40
2022-09-04T00:52:20.329Z,12.40
2022-09-04T00:55:34.159Z,12.40
2022-09-04T00:58:21.674Z,12.40
2022-09-04T01:00:49.662Z,12.50
2022-09-04T01:03:31.702Z,12.50
2022-09-04T01:06:35.526Z,12.60
2022-09-04T01:09:22.463Z,12.70
2022-09-04T01:12:12.657Z,12.90
2022-09-04T01:15:04.303Z,12.90
2022-09-04T01:17:42.205Z,13.10
2022-09-04T01:20:20.411Z,13.20
2022-09-04T01:23:35.450Z,13.30
2022-09-04T01:26:24.229Z,13.40
2022-09-04T01:29:10.402Z,13.50
2022-09-04T01:32:06.047Z,13.60
2022-09-04T01:34:42.732Z,13.60
2022-09-04T01:37:30.806Z,13.40
2022-09-04T01:40:10.245Z,13.30
2022-09-04T01:42:51.943Z,13.20
2022-09-04T01:45:53.060Z,13.10
2022-09-04T01:48:48.782Z,13.10
2022-09-04T01:51:34.818Z,13.10
2022-09-04T01:54:07.588Z,13.10
2022-09-04T01:56:45.071Z,13.10
2022-09-04T01:59:25.708Z,13.10
2022-09-04T02:01:55.439Z,13.30
2022-09-04T02:04:39.477Z,13.40
2022-09-04T02:07:12.317Z,13.40
2022-09-04T02:10:09.122Z,13.50
2022-09-04T02:12:42.994Z,13.40
2022-09-04T02:15:20.466Z,13.40
2022-09-04T02:18:02.973Z,13.40
2022-09-04T02:20:31.284Z,13.40
2022-09-04T02:23:05.237Z,13.40
2022-09-04T02:25:43.380Z,13.40
2022-09-04T02:28:53.885Z,13.30
2022-09-04T02:31:42.622Z,13.30
2022-09-04T02:34:13.608Z,13.30
2022-09-04T02:36:50.214Z,13.30
2022-09-04T02:39:41.880Z,13.30
2022-09-04T02:42:21.288Z,13.30
2022-09-04T02:45:04.686Z,13.30
2022-09-04T02:48:06.172Z,13.30
2022-09-04T02:51:04.185Z,13.20
2022-09-04T02:53:49.814Z,13.10
2022-09-04T02:56:24.463Z,13.10
2022-09-04T02:59:07.789Z,13.10
2022-09-04T03:01:50.037Z,13.10
2022-09-04T03:04:28.162Z,13.10
2022-09-04T03:07:13.778Z,13.20
2022-09-04T03:10:00.930Z,13.20
2022-09-04T03:12:32.309Z,13.20
2022-09-04T03:15:10.959Z,13.20
2022-09-04T03:17:57.931Z,13.20
2022-09-04T03:20:28.342Z,13.10
2022-09-04T03:23:19.921Z,13.00
2022-09-04T03:25:58.923Z,13.00
2022-09-04T03:28:45.784Z,12.90
2022-09-04T03:31:35.127Z,12.70
2022-09-04T03:34:13.938Z,12.60
2022-09-04T03:37:02.570Z,12.50
2022-09-04T03:39:51.438Z,12.50
2022-09-04T03:42:30.103Z,12.40
2022-09-04T03:44:57.059Z,12.30
2022-09-04T03:48:08.212Z,12.20
2022-09-04T03:50:56.749Z,12.10
2022-09-04T03:53:45.390Z,12.00
2022-09-04T03:56:30.762Z,11.90
2022-09-04T03:59:08.373Z,11.80
2022-09-04T04:01:56.591Z,11.80
2022-09-04T04:05:00.271Z,11.80
2022-09-04T04:07:53.232Z,11.80
2022-09-04T04:10:57.145Z,11.80
2022-09-04T04:13:56.748Z,11.80
2022-09-04T04:16:42.501Z,11.70
2022-09-04T04:19:34.693Z,11.70
2022-09-04T04:22:07.846Z,11.80
2022-09-04T04:25:05.699Z,11.80
2022-09-04T04:27:44.775Z,11.80
2022-09-04T04:30:15.401Z,11.80
2022-09-04T04:32:53.577Z,11.80
2022-09-04T04:35:27.461Z,11.70
2022-09-04T04:38:15.502Z,11.60
2022-09-04T04:40:51.356Z,11.60
2022-09-04T04:43:21.447Z,11.70
2022-09-04T04:46:08.389Z,11.70
2022-09-04T04:49:05.823Z,11.80
2022-09-04T04:51:42.274Z,11.80
2022-09-04T04:54:36.934Z,11.80
2022-09-04T04:57:31.885Z,11.90
2022-09-04T05:00:05.137Z,11.90
2022-09-04T05:02:51.788Z,11.80
2022-09-04T05:05:56.541Z,11.80
2022-09-04T05:08:44.869Z,11.80
2022-09-04T05:11:50.363Z,11.90
2022-09-04T05:14:58.554Z,12.00
2022-09-04T05:17:50.308Z,12.10
2022-09-04T05:20:17.393Z,12.20
2022-09-04T05:22:56.383Z,12.30
2022-09-04T05:25:33.099Z,12.30
2022-09-04T05:28:18.656Z,12.50
2022-09-04T05:30:45.658Z,12.50
2022-09-04T05:33:50.741Z,12.70
2022-09-04T05:36:42.728Z,12.80
2022-09-04T05:39:22.745Z,12.80
2022-09-04T05:42:15.674Z,12.90
2022-09-04T05:45:06.655Z,13.00
2022-09-04T05:47:43.297Z,13.10
2022-09-04T05:50:37.026Z,13.20
2022-09-04T05:53:07.025Z,13.30
2022-09-04T05:55:48.606Z,13.40
2022-09-04T05:58:42.518Z,13.60
2022-09-04T06:01:18.937Z,13.60
2022-09-04T06:04:10.722Z,13.70
2022-09-04T06:06:45.454Z,13.70
2022-09-04T06:09:49.861Z,13.80
2022-09-04T06:12:19.977Z,13.80
2022-09-04T06:14:59.089Z,14.10
2022-09-04T06:17:52.532Z,14.80
2022-09-04T06:20:28.780Z,16.10
2022-09-04T06:23:14.569Z,17.50
2022-09-04T06:26:29.188Z,18.40
2022-09-04T06:29:05.935Z,20.00
2022-09-04T06:31:42.398Z,21.30
2022-09-04T06:34:33.834Z,22.60
2022-09-04T06:37:15.841Z,24.00
2022-09-04T06:40:07.771Z,25.00
2022-09-04T06:42:56.283Z,25.80
2022-09-04T06:45:48.080Z,26.20
2022-09-04T06:48:23.049Z,26.70
2022-09-04T06:51:00.189Z,27.10
2022-09-04T06:53:59.736Z,27.70
2022-09-04T06:56:38.906Z,27.70
2022-09-04T06:59:25.481Z,27.70
2022-09-04T07:02:27.623Z,28.20
2022-09-04T07:05:20.095Z,28.30
2022-09-04T07:08:42.729Z,29.10
2022-09-04T07:11:12.634Z,29.20
2022-09-04T07:14:00.254Z,29.20
2022-09-04T07:16:36.767Z,29.10
2022-09-04T07:19:25.466Z,28.50
2022-09-04T07:22:18.110Z,28.20
2022-09-04T07:25:05.140Z,28.10
2022-09-04T07:28:02.709Z,28.50
2022-09-04T07:30:38.415Z,29.10
2022-09-04T07:33:21.426Z,29.40
2022-09-04T07:36:01.390Z,29.50
2022-09-04T07:39:13.540Z,29.60
2022-09-04T07:41:56.610Z,29.70
2022-09-04T07:44:37.029Z,29.50
2022-09-04T07:47:22.150Z,29.50
2022-09-04T07:49:56.517Z,29.30
2022-09-04T07:53:04.246Z,29.50
2022-09-04T07:55:42.501Z,30.00
2022-09-04T07:58:28.889Z,30.20
2022-09-04T08:01:40.515Z,30.00
2022-09-04T08:04:38.607Z,30.10
2022-09-04T08:07:12.572Z,30.40
2022-09-04T08:09:58.110Z,30.30
2022-09-04T08:13:04.134Z,30.30
2022-09-04T08:15:52.836Z,30.80
2022-09-04T08:18:21.114Z,30.90
2022-09-04T08:20:54.174Z,31.00
2022-09-04T08:23:30.266Z,31.10
2022-09-04T08:26:00.042Z,30.80
2022-09-04T08:28:46.288Z,30.40
2022-09-04T08:31:55.921Z,30.20
2022-09-04T08:34:25.764Z,30.00
2022-09-04T08:37:13.304Z,30.10
2022-09-04T08:39:57.296Z,30.40
2022-09-04T08:42:35.994Z,30.40
2022-09-04T08:45:51.715Z,30.20
2022-09-04T08:48:29.335Z,30.60
2022-09-04T08:51:05.382Z,31.30
2022-09-04T08:54:06.483Z,31.60
2022-09-04T08:57:06.852Z,31.70
2022-09-04T08:59:33.843Z,31.10
2022-09-04T09:02:17.248Z,31.00
2022-09-04T09:05:05.571Z,31.10
2022-09-04T09:08:09.325Z,31.40
2022-09-04T09:11:02.197Z,31.50
2022-09-04T09:13:51.186Z,30.80
2022-09-04T09:16:44.155Z,29.80
2022-09-04T09:19:42.591Z,28.50
2022-09-04T09:22:47.757Z,27.40
2022-09-04T09:25:21.043Z,26.40
2022-09-04T09:27:57.165Z,26.00
2022-09-04T09:30:24.846Z,25.90
2022-09-04T09:33:29.454Z,25.20
2022-09-04T09:35:59.293Z,25.00
2022-09-04T09:38:29.469Z,26.20
2022-09-04T09:41:18.158Z,27.00
2022-09-04T09:44:15.687Z,27.20
2022-09-04T09:46:54.644Z,26.90
2022-09-04T09:49:49.449Z,27.00
2022-09-04T09:52:29.242Z,27.40
2022-09-04T09:55:17.862Z,27.20
2022-09-04T09:58:26.341Z,26.70
2022-09-04T10:01:08.813Z,26.60
2022-09-04T10:03:41.855Z,27.30
2022-09-04T10:06:14.832Z,28.00
2022-09-04T10:09:26.713Z,28.20
2022-09-04T10:11:59.503Z,27.60
2022-09-04T10:15:01.756Z,26.70
2022-09-04T10:17:31.484Z,26.10
2022-09-04T10:20:22.972Z,25.80
2022-09-04T10:23:06.129Z,25.60
2022-09-04T10:25:49.677Z,25.40
2022-09-04T10:28:35.523Z,25.30
2022-09-04T10:31:12.014Z,25.10
2022-09-04T10:34:24.325Z,25.80
2022-09-04T10:37:02.682Z,27.00
2022-09-04T10:40:06.865Z,27.50
2022-09-04T10:43:10.318Z,27.60
2022-09-04T10:46:08.611Z,27.20
2022-09-04T10:48:56.543Z,26.40
2022-09-04T10:51:45.832Z,25.80
2022-09-04T10:54:45.152Z,25.20
2022-09-04T10:57:37.430Z,25.20
2022-09-04T11:00:14.004Z,25.80
2022-09-04T11:02:53.057Z,26.70
2022-09-04T11:05:25.511Z,27.40
2022-09-04T11:08:20.598Z,27.60
2022-09-04T11:11:31.662Z,28.20
2022-09-04T11:14:10.142Z,28.30
2022-09-04T11:16:58.454Z,28.60
2022-09-04T11:19:43.603Z,28.80
2022-09-04T11:22:39.633Z,29.20
2022-09-04T11:25:06.770Z,28.50
2022-09-04T11:28:00.325Z,27.90
2022-09-04T11:30:42.569Z,27.60
2022-09-04T11:33:53.966Z,28.00
2022-09-04T11:36:23.891Z,28.30
2022-09-04T11:39:12.218Z,28.60
2022-09-04T11:42:11.459Z,28.90
2022-09-04T11:45:05.921Z,28.80
2022-09-04T11:47:36.699Z,28.00
2022-09-04T11:50:24.840Z,28.70
2022-09-04T11:53:04.510Z,29.60
2022-09-04T11:55:52.594Z,30.40
2022-09-04T11:58:41.759Z,30.30
2022-09-04T12:01:30.307Z,30.00
2022-09-04T12:04:03.432Z,29.70
2022-09-04T12:06:49.559Z,29.30
2022-09-04T12:09:38.443Z,29.30
2022-09-04T12:12:11.676Z,29.70
2022-09-04T12:14:38.622Z,29.90
2022-09-04T12:17:34.765Z,29.90
2022-09-04T12:20:24.307Z,30.10
2022-09-04T12:23:09.587Z,30.30
2022-09-04T12:25:58.101Z,30.20
2022-09-04T12:29:02.730Z,30.60
2022-09-04T12:31:51.250Z,30.70
2022-09-04T12:34:36.563Z,30.60
2022-09-04T12:37:25.214Z,30.80
2022-09-04T12:40:31.287Z,30.90
2022-09-04T12:43:03.797Z,30.80
2022-09-04T12:45:40.568Z,30.80
2022-09-04T12:48:19.246Z,31.10
2022-09-04T12:50:59.591Z,31.10
2022-09-04T12:53:53.346Z,31.50
2022-09-04T12:57:16.111Z,31.40
2022-09-04T13:00:00.113Z,32.00
2022-09-04T13:02:30.260Z,31.60
2022-09-04T13:05:19.093Z,30.40
2022-09-04T13:07:59.712Z,29.60
2022-09-04T13:10:35.585Z,28.70
2022-09-04T13:13:13.586Z,28.30
2022-09-04T13:16:04.171Z,27.90
2022-09-04T13:18:41.309Z,27.80
2022-09-04T13:21:12.865Z,28.20
2022-09-04T13:24:01.679Z,28.80
2022-09-04T13:26:57.871Z,29.60
2022-09-04T13:29:46.547Z,29.70
2022-09-04T13:32:26.068Z,29.20
2022-09-04T13:35:03.996Z,29.30
2022-09-04T13:37:45.361Z,29.40
2022-09-04T13:40:17.934Z,29.90
2022-09-04T13:43:29.655Z,30.40
2022-09-04T13:46:03.479Z,30.80
2022-09-04T13:48:53.392Z,30.90
2022-09-04T13:51:29.875Z,31.30
2022-09-04T13:54:12.542Z,31.90
2022-09-04T13:57:07.610Z,31.70
2022-09-04T13:59:35.957Z,31.60
2022-09-04T14:02:07.073Z,31.30
2022-09-04T14:04:51.182Z,31.20
2022-09-04T14:07:41.535Z,31.20
2022-09-04T14:10:23.078Z,31.20
2022-09-04T14:13:28.521Z,31.50
2022-09-04T14:16:01.954Z,31.40
2022-09-04T14:18:47.997Z,31.50
2022-09-04T14:21:15.018Z,31.40
2022-09-04T14:23:54.260Z,31.20
2022-09-04T14:26:26.974Z,31.20
2022-09-04T14:29:15.764Z,31.00
2022-09-04T14:31:56.953Z,31.10
2022-09-04T14:34:50.264Z,31.00
2022-09-04T14:37:31.018Z,30.90
2022-09-04T14:40:15.364Z,30.90
2022-09-04T14:42:58.400Z,30.60
2022-09-04T14:45:58.495Z,30.70
2022-09-04T14:48:26.236Z,30.90
2022-09-04T14:51:00.271Z,30.90
2022-09-04T14:53:34.368Z,30.80
2022-09-04T14:56:10.507Z,30.70
2022-09-04T14:58:53.919Z,30.60
2022-09-04T15:01:25.770Z,30.50
2022-09-04T15:04:08.620Z,30.10
2022-09-04T15:07:12.079Z,30.10
2022-09-04T15:09:48.731Z,30.10
2022-09-04T15:12:25.042Z,30.20
2022-09-04T15:15:30.523Z,30.40
2022-09-04T15:18:10.400Z,30.70
2022-09-04T15:20:41.050Z,30.70
2022-09-04T15:23:37.388Z,30.50
2022-09-04T15:26:23.997Z,29.90
2022-09-04T15:29:23.284Z,30.20
2022-09-04T15:31:59.821Z,30.40
2022-09-04T15:34:28.406Z,30.30
2022-09-04T15:37:11.192Z,30.00
2022-09-04T15:39:51.462Z,29.90
2022-09-04T15:42:40.706Z,29.90
2022-09-04T15:45:26.010Z,29.70
2022-09-04T15:48:27.199Z,29.50
2022-09-04T15:51:04.442Z,29.20
2022-09-04T15:53:35.316Z,29.20
2022-09-04T15:56:29.379Z,28.40
2022-09-04T15:59:24.733Z,27.60
2022-09-04T16:02:22.289Z,27.60
2022-09-04T16:05:23.075Z,27.50
2022-09-04T16:08:05.422Z,27.70
2022-09-04T16:11:02.539Z,28.10
2022-09-04T16:13:35.476Z,28.10
2022-09-04T16:16:12.706Z,28.10
2022-09-04T16:18:40.351Z,28.20
2022-09-04T16:21:22.997Z,28.20
2022-09-04T16:23:51.158Z,28.40
2022-09-04T16:26:31.026Z,28.40
2022-09-04T16:29:06.129Z,28.60
2022-09-04T16:31:35.480Z,28.70
2022-09-04T16:34:13.822Z,29.00
2022-09-04T16:36:51.056Z,29.20
2022-09-04T16:39:40.441Z,28.90
2022-09-04T16:42:20.953Z,29.10
2022-09-04T16:44:58.398Z,29.20
2022-09-04T16:47:44.735Z,29.20
2022-09-04T16:50:23.801Z,29.00
2022-09-04T16:53:14.327Z,28.40
2022-09-04T16:55:49.917Z,27.70
2022-09-04T16:58:40.159Z,26.80
2022-09-04T17:01:20.578Z,25.90
2022-09-04T17:04:24.082Z,25.20
2022-09-04T17:07:18.493Z,24.70
2022-09-04T17:09:45.462Z,24.00
2022-09-04T17:12:35.690Z,23.60
2022-09-04T17:15:23.739Z,23.20
2022-09-04T17:17:53.870Z,22.80
2022-09-04T17:22:02.440Z,22.50
2022-09-04T17:28:57.523Z,22.20
2022-09-04T17:29:12.104Z,21.90
2022-09-04T17:29:49.380Z,21.60
2022-09-04T17:33:00.133Z,21.30
2022-09-04T17:40:36.393Z,21.10
2022-09-04T17:40:47.771Z,20.80
2022-09-04T17:41:47.380Z,20.70
2022-09-04T17:44:36.408Z,20.50
2022-09-04T17:47:28.566Z,20.30
2022-09-04T17:49:56.459Z,20.20
2022-09-04T17:52:28.417Z,20.00
2022-09-04T17:55:04.264Z,19.90
2022-09-04T17:57:43.818Z,19.60
2022-09-04T18:00:20.646Z,19.40
2022-09-04T18:03:00.055Z,19.10
2022-09-04T18:05:53.273Z,18.90
2022-09-04T18:08:56.118Z,18.70
2022-09-04T18:11:29.360Z,18.70
2022-09-04T18:14:13.115Z,18.50
2022-09-04T18:17:11.942Z,18.30
2022-09-04T18:19:47.214Z,18.10
2022-09-04T18:22:33.189Z,17.90
2022-09-04T18:25:17.172Z,17.80
2022-09-04T18:28:14.257Z,17.70
2022-09-04T18:37:08.843Z,17.60
2022-09-04T18:37:18.981Z,17.70
2022-09-04T18:37:44.165Z,17.70
2022-09-04T18:40:21.158Z,17.60
2022-09-04T18:50:31.760Z,17.40
2022-09-04T18:50:38.695Z,17.40
2022-09-04T18:50:40.488Z,17.50
2022-09-04T18:52:10.175Z,17.30
2022-09-04T18:54:45.498Z,17.20
2022-09-04T18:57:35.378Z,17.00
2022-09-04T19:00:10.002Z,16.90
2022-09-04T19:03:07.783Z,16.80
2022-09-04T19:05:45.109Z,16.70
2022-09-04T19:08:25.125Z,16.70
2022-09-04T19:10:56.122Z,16.70
2022-09-04T19:13:43.361Z,16.90
2022-09-04T19:16:13.014Z,17.00
2022-09-04T19:18:46.910Z,17.10
2022-09-04T19:21:23.539Z,17.10
2022-09-04T19:24:15.806Z,17.20
2022-09-04T19:26:55.055Z,17.20
2022-09-04T19:29:31.437Z,17.20
2022-09-04T19:32:36.630Z,17.20
2022-09-04T19:35:30.166Z,17.20
2022-09-04T19:42:39.345Z,17.10
2022-09-04T19:46:03.654Z,17.00
2022-09-04T19:46:13.656Z,16.90
2022-09-04T19:47:27.462Z,16.80
2022-09-04T19:53:33.087Z,16.80
2022-09-04T19:53:39.072Z,16.80
2022-09-04T19:56:28.083Z,16.80
2022-09-04T19:59:11.888Z,16.80
2022-09-04T20:01:58.103Z,16.80
2022-09-04T20:04:37.260Z,16.70
2022-09-04T20:07:41.837Z,16.70
2022-09-04T20:10:24.540Z,16.60
2022-09-04T20:13:14.319Z,16.60
2022-09-04T20:15:53.897Z,16.50
2022-09-04T20:18:31.031Z,16.40
2022-09-04T20:21:15.231Z,16.30
2022-09-04T20:24:01.873Z,16.30
2022-09-04T20:26:44.728Z,16.20
2022-09-04T20:29:24.497Z,16.10
2022-09-04T20:32:23.953Z,16.10
2022-09-04T20:35:13.418Z,16.00
2022-09-04T20:37:55.148Z,16.00
2022-09-04T20:40:42.349Z,16.00
2022-09-04T20:43:09.388Z,16.00
2022-09-04T20:50:37.458Z,16.00
2022-09-04T20:52:51.809Z,16.00
2022-09-04T20:52:59.380Z,15.90
2022-09-04T20:54:28.759Z,15.90
2022-09-04T20:58:52.383Z,15.80
2022-09-04T21:03:21.880Z,15.80
2022-09-04T21:03:34.409Z,15.70
2022-09-04T21:06:35.015Z,15.60
2022-09-04T21:09:11.044Z,15.60
2022-09-04T21:12:20.927Z,15.50
2022-09-04T21:14:58.814Z,15.50
2022-09-04T21:18:05.502Z,15.40
2022-09-04T21:20:35.363Z,15.40
2022-09-04T21:23:53.054Z,15.30
2022-09-04T21:26:53.108Z,15.30
2022-09-04T21:29:20.073Z,15.30
2022-09-04T21:31:56.079Z,15.30
2022-09-04T21:34:37.543Z,15.30
2022-09-04T21:37:58.597Z,15.30
2022-09-04T21:40:50.795Z,15.30
2022-09-04T21:43:35.733Z,15.20
2022-09-04T21:46:12.959Z,15.20
2022-09-04T21:49:07.781Z,15.10
2022-09-04T21:52:19.980Z,15.10
2022-09-04T21:58:31.298Z,15.10
2022-09-04T22:02:43.088Z,15.10
2022-09-04T22:02:45.247Z,15.00
2022-09-04T22:04:35.106Z,15.10
2022-09-04T22:10:08.434Z,15.00
2022-09-04T22:13:33.435Z,15.10
2022-09-04T22:13:53.410Z,15.10
2022-09-04T22:16:42.312Z,15.10
2022-09-04T22:19:36.515Z,15.00
2022-09-04T22:22:13.883Z,15.00
2022-09-04T22:24:59.409Z,14.90
2022-09-04T22:28:09.254Z,14.90
2022-09-04T22:31:07.734Z,14.90
2022-09-04T22:34:15.134Z,14.80
2022-09-04T22:37:17.549Z,14.70
2022-09-04T22:39:57.750Z,14.70
2022-09-04T22:42:37.373Z,14.60
2022-09-04T22:45:44.949Z,14.70
2022-09-04T22:49:12.607Z,14.70
2022-09-04T22:52:09.976Z,14.60
2022-09-04T22:54:40.001Z,14.60
2022-09-04T22:57:19.647Z,14.70
2022-09-04T23:00:13.276Z,14.70
2022-09-04T23:03:18.900Z,14.60
2022-09-04T23:06:17.530Z,14.60
2022-09-04T23:13:44.740Z,14.70
2022-09-04T23:13:49.432Z,14.60
2022-09-04T23:15:39.866Z,14.60
2022-09-04T23:22:09.958Z,14.70
2022-09-04T23:26:50.913Z,14.70
2022-09-04T23:26:58.679Z,14.60
2022-09-04T23:28:09.167Z,14.70
2022-09-04T23:31:09.906Z,14.70
2022-09-04T23:34:00.902Z,14.70
2022-09-04T23:36:36.810Z,14.60
2022-09-04T23:39:28.763Z,14.70
2022-09-04T23:42:11.714Z,14.80
2022-09-04T23:45:03.744Z,14.80
2022-09-04T23:47:47.612Z,14.70
2022-09-04T23:50:46.663Z,14.70
2022-09-04T23:53:37.194Z,14.60
2022-09-04T23:56:07.285Z,14.50
2022-09-04T23:59:10.853Z,14.50
